Time;durP1;ratioP1;P1;durP2;ratioP2;P2;SDS_P1;SDS_P2;PMS_P1;PMS_P2;Temp;Humidity;BMP_temperature;BMP_pressure;BME280_temperature;BME280_humidity;BME280_pressure;Samples;Min_cycle;Max_cycle;Signal;HPM_P1;HPM_P2
2022/03/27 00:00:22;;;;;;;29.67;18.65;;;6.10;45.70;;;;;;5056111;28;20253;-63
2022/03/27 00:02:49;;;;;;;29.88;19.20;;;6.10;46.10;;;;;;5074179;28;20196;-62
2022/03/27 00:05:16;;;;;;;28.85;18.38;;;6.00;45.80;;;;;;5072638;28;20193;-63
2022/03/27 00:07:43;;;;;;;34.15;19.58;;;5.90;46.10;;;;;;5054124;28;20244;-63
2022/03/27 00:10:11;;;;;;;30.98;20.67;;;5.90;46.20;;;;;;5053950;28;20194;-65
2022/03/27 00:12:38;;;;;;;32.47;18.90;;;5.90;46.70;;;;;;5073500;28;20721;-63
2022/03/27 00:15:09;;;;;;;29.38;17.98;;;5.90;46.90;;;;;;5074112;28;20204;-62
2022/03/27 00:17:36;;;;;;;32.58;18.60;;;5.90;46.60;;;;;;5054469;28;20190;-62
2022/03/27 00:20:08;;;;;;;31.38;19.60;;;5.90;46.80;;;;;;5054025;28;20649;-62
2022/03/27 00:22:36;;;;;;;32.00;18.10;;;5.90;46.50;;;;;;5071615;28;20223;-62
2022/03/27 00:25:04;;;;;;;27.20;18.45;;;5.90;45.90;;;;;;5073920;28;20227;-62
2022/03/27 00:27:32;;;;;;;31.55;19.60;;;5.90;45.70;;;;;;5056334;28;20551;-62
2022/03/27 00:29:59;;;;;;;30.30;18.95;;;5.80;44.90;;;;;;5054642;28;20269;-68
2022/03/27 00:32:28;;;;;;;34.75;18.02;;;5.70;45.20;;;;;;5058311;28;20193;-62
2022/03/27 00:34:55;;;;;;;28.13;18.73;;;5.60;45.30;;;;;;5073641;28;20248;-62
2022/03/27 00:37:22;;;;;;;29.77;17.48;;;5.50;45.90;;;;;;5069366;28;20183;-63
2022/03/27 00:39:50;;;;;;;30.77;19.95;;;5.40;46.10;;;;;;5053960;28;20285;-63
2022/03/27 00:42:19;;;;;;;33.28;20.10;;;5.40;46.80;;;;;;5055590;28;20755;-62
2022/03/27 00:44:46;;;;;;;34.30;17.80;;;5.40;47.00;;;;;;5073142;28;20284;-62
2022/03/27 00:47:13;;;;;;;29.98;19.08;;;5.30;47.00;;;;;;5070022;28;20641;-62
2022/03/27 00:49:42;;;;;;;31.10;17.23;;;5.10;47.70;;;;;;5053372;28;20636;-62
2022/03/27 00:52:09;;;;;;;28.10;18.33;;;5.10;48.00;;;;;;5054399;28;20230;-62
2022/03/27 00:54:36;;;;;;;36.85;19.35;;;5.10;48.40;;;;;;5073360;28;20225;-62
2022/03/27 00:57:03;;;;;;;26.67;16.58;;;5.10;48.40;;;;;;5072745;28;20591;-62
2022/03/27 00:59:31;;;;;;;29.30;18.15;;;5.10;48.90;;;;;;5033217;28;20677;-62
2022/03/27 01:01:58;;;;;;;31.13;19.15;;;5.20;48.70;;;;;;5033080;28;20218;-62
2022/03/27 01:04:25;;;;;;;32.80;18.95;;;5.20;48.40;;;;;;5070995;28;20185;-63
2022/03/27 01:06:53;;;;;;;29.20;18.15;;;5.20;48.40;;;;;;5070439;28;20202;-62
2022/03/27 01:09:38;;;;;;;28.02;17.63;;;5.20;48.50;;;;;;5053014;28;20242;-62
2022/03/27 01:12:14;;;;;;;26.13;17.98;;;5.20;49.00;;;;;;5056013;28;20186;-62
2022/03/27 01:14:41;;;;;;;27.35;17.73;;;5.20;47.40;;;;;;5073140;28;20197;-63
2022/03/27 01:17:10;;;;;;;28.92;18.17;;;5.10;47.80;;;;;;5069301;28;20182;-63
2022/03/27 01:19:41;;;;;;;31.80;18.00;;;5.00;48.40;;;;;;5052843;28;20244;-62
2022/03/27 01:22:10;;;;;;;31.23;17.20;;;5.00;48.40;;;;;;5054851;28;20224;-62
2022/03/27 01:24:37;;;;;;;23.73;16.48;;;5.00;48.30;;;;;;5072856;28;20196;-62
2022/03/27 01:27:05;;;;;;;27.17;17.60;;;5.00;48.10;;;;;;5070882;28;20189;-62
2022/03/27 01:29:33;;;;;;;27.05;15.45;;;5.00;47.50;;;;;;5052802;28;20284;-62
2022/03/27 01:32:01;;;;;;;25.88;16.67;;;5.00;47.40;;;;;;5052942;28;20191;-63
2022/03/27 01:34:29;;;;;;;26.10;17.60;;;4.90;47.20;;;;;;5072712;28;20308;-63
2022/03/27 01:36:56;;;;;;;29.17;18.70;;;4.80;47.10;;;;;;5072632;28;20194;-63
2022/03/27 01:39:24;;;;;;;29.25;17.35;;;4.70;47.70;;;;;;5052593;28;20186;-62
2022/03/27 01:41:51;;;;;;;28.30;17.98;;;4.70;48.60;;;;;;5052257;28;20218;-64
2022/03/27 01:44:20;;;;;;;28.52;18.38;;;4.60;49.00;;;;;;5070648;28;20189;-62
2022/03/27 01:46:48;;;;;;;23.75;16.88;;;4.60;49.70;;;;;;5072419;28;20652;-62
2022/03/27 01:49:16;;;;;;;24.27;15.88;;;4.60;48.80;;;;;;5054674;28;20603;-63
2022/03/27 01:51:44;;;;;;;26.50;16.63;;;4.60;48.30;;;;;;5052324;28;20202;-62
2022/03/27 01:54:12;;;;;;;32.85;17.90;;;4.60;48.00;;;;;;5068401;28;20591;-63
2022/03/27 01:56:41;;;;;;;31.90;17.90;;;4.50;48.00;;;;;;5070610;28;20545;-63
2022/03/27 01:59:08;;;;;;;26.52;17.90;;;4.40;48.20;;;;;;5068186;28;20197;-62
2022/03/27 02:01:36;;;;;;;25.80;16.02;;;4.40;49.10;;;;;;5071878;28;20220;-62
2022/03/27 02:04:03;;;;;;;24.60;16.67;;;4.30;49.10;;;;;;5055218;28;20183;-63
2022/03/27 02:06:31;;;;;;;25.52;15.85;;;4.30;49.20;;;;;;5052435;28;20194;-62
2022/03/27 02:08:59;;;;;;;26.88;17.08;;;4.20;49.80;;;;;;5068278;28;20212;-62
2022/03/27 02:11:26;;;;;;;26.40;16.83;;;4.20;49.80;;;;;;5072411;28;20198;-64
2022/03/27 02:13:55;;;;;;;28.88;17.40;;;4.20;50.10;;;;;;5056476;28;20236;-62
2022/03/27 02:16:23;;;;;;;29.60;18.45;;;4.10;50.60;;;;;;5052066;28;20332;-62
2022/03/27 02:18:50;;;;;;;26.95;17.35;;;4.10;51.20;;;;;;5069351;28;20189;-62
2022/03/27 02:21:17;;;;;;;28.33;18.13;;;4.00;51.10;;;;;;5076578;28;20220;-62
2022/03/27 02:23:44;;;;;;;30.05;17.30;;;4.00;51.00;;;;;;5062811;28;20247;-62
2022/03/27 02:26:11;;;;;;;27.33;17.10;;;4.00;51.10;;;;;;5055855;28;20194;-62
2022/03/27 02:28:40;;;;;;;24.35;16.98;;;4.00;51.50;;;;;;5067197;28;20637;-62
2022/03/27 02:31:09;;;;;;;31.85;19.15;;;3.90;51.60;;;;;;5075823;28;20193;-62
2022/03/27 02:33:36;;;;;;;29.90;18.10;;;3.90;51.60;;;;;;5064752;28;20214;-62
2022/03/27 02:36:05;;;;;;;28.73;19.50;;;3.90;51.60;;;;;;5056151;28;20190;-62
2022/03/27 02:38:33;;;;;;;25.35;16.02;;;3.90;51.80;;;;;;5065001;28;20189;-63
2022/03/27 02:41:01;;;;;;;26.95;17.10;;;3.90;51.10;;;;;;5075854;28;20243;-62
2022/03/27 02:43:28;;;;;;;23.25;14.55;;;3.90;51.20;;;;;;5067163;28;20182;-63
2022/03/27 02:45:55;;;;;;;39.88;18.20;;;3.80;50.70;;;;;;5055806;28;20649;-62
2022/03/27 02:48:24;;;;;;;25.33;16.73;;;3.80;50.70;;;;;;5062546;28;20196;-62
2022/03/27 02:50:51;;;;;;;24.40;16.20;;;3.80;50.50;;;;;;5075621;28;20185;-62
2022/03/27 02:53:18;;;;;;;29.60;16.38;;;3.60;50.30;;;;;;5069198;28;20183;-62
2022/03/27 02:55:45;;;;;;;25.63;16.45;;;3.50;51.00;;;;;;5055379;28;20240;-62
2022/03/27 02:58:12;;;;;;;28.65;16.88;;;3.40;51.70;;;;;;5059629;28;20219;-62
2022/03/27 03:00:42;;;;;;;26.88;16.02;;;3.40;52.40;;;;;;5075243;28;20199;-62
2022/03/27 03:03:09;;;;;;;23.27;16.42;;;3.40;53.30;;;;;;5071123;28;20241;-62
2022/03/27 03:05:39;;;;;;;27.60;16.27;;;3.40;52.40;;;;;;5055677;28;20232;-62
2022/03/27 03:08:11;;;;;;;30.92;17.77;;;3.40;51.60;;;;;;5057620;28;20187;-62
2022/03/27 03:10:39;;;;;;;30.13;16.25;;;3.40;51.80;;;;;;5075373;28;20189;-62
2022/03/27 03:13:08;;;;;;;28.15;17.15;;;3.40;51.40;;;;;;5072658;28;20636;-63
2022/03/27 03:15:36;;;;;;;31.45;17.20;;;3.40;51.70;;;;;;5055257;28;20202;-62
2022/03/27 03:18:04;;;;;;;27.20;15.80;;;3.40;51.80;;;;;;5055432;28;20222;-62
2022/03/27 03:20:32;;;;;;;25.02;15.10;;;3.40;51.70;;;;;;5062659;28;20186;-62
2022/03/27 03:23:01;;;;;;;23.15;16.27;;;3.30;51.40;;;;;;5054857;28;20222;-62
2022/03/27 03:25:29;;;;;;;28.27;15.95;;;3.30;51.50;;;;;;5054725;28;20191;-63
2022/03/27 03:27:56;;;;;;;28.05;17.08;;;3.30;51.30;;;;;;5054916;28;20202;-62
2022/03/27 03:30:23;;;;;;;26.23;16.50;;;3.30;51.70;;;;;;5071770;28;20297;-64
2022/03/27 03:32:53;;;;;;;28.05;17.10;;;3.30;52.00;;;;;;5074687;28;20596;-62
2022/03/27 03:35:21;;;;;;;32.30;14.48;;;3.20;51.30;;;;;;5058277;28;20187;-62
2022/03/27 03:37:48;;;;;;;24.38;15.77;;;3.10;51.10;;;;;;5054648;28;20194;-62
2022/03/27 03:40:18;;;;;;;27.60;16.30;;;3.00;51.20;;;;;;5068157;28;20194;-62
2022/03/27 03:42:45;;;;;;;27.58;17.83;;;3.00;51.40;;;;;;5054695;28;20687;-62
2022/03/27 03:45:12;;;;;;;22.33;14.60;;;3.00;51.20;;;;;;5067860;28;20621;-62
2022/03/27 03:47:39;;;;;;;29.00;16.83;;;2.90;51.50;;;;;;5074387;28;20247;-62
2022/03/27 03:50:07;;;;;;;28.02;16.48;;;2.90;51.40;;;;;;5061094;28;20186;-62
2022/03/27 03:52:34;;;;;;;33.47;16.10;;;2.90;51.60;;;;;;5056542;28;20197;-62
2022/03/27 03:55:01;;;;;;;27.08;15.10;;;2.90;51.90;;;;;;5074164;28;20653;-62
2022/03/27 03:57:30;;;;;;;23.27;14.82;;;2.80;51.10;;;;;;5073075;28;20672;-62
2022/03/27 03:59:57;;;;;;;22.40;15.10;;;2.70;50.80;;;;;;5054217;28;20194;-62
2022/03/27 04:02:24;;;;;;;24.85;15.02;;;2.70;51.20;;;;;;5054332;28;20214;-63
2022/03/27 04:04:51;;;;;;;24.30;15.45;;;2.70;51.40;;;;;;5072893;28;20182;-62
2022/03/27 04:07:18;;;;;;;25.70;15.15;;;2.70;51.90;;;;;;5074714;28;20328;-62
2022/03/27 04:09:45;;;;;;;28.15;15.60;;;2.60;52.10;;;;;;5055371;28;20679;-62
2022/03/27 04:12:12;;;;;;;26.38;16.17;;;2.70;52.30;;;;;;5053988;28;20255;-62
2022/03/27 04:14:41;;;;;;;25.42;16.58;;;2.70;51.40;;;;;;5070889;28;20239;-62
2022/03/27 04:17:08;;;;;;;28.95;17.30;;;2.60;51.90;;;;;;5070338;28;20255;-62
2022/03/27 04:19:35;;;;;;;26.98;15.35;;;2.60;53.10;;;;;;5054255;28;20190;-63
2022/03/27 04:22:02;;;;;;;27.23;14.50;;;2.60;53.20;;;;;;5055821;28;20222;-62
2022/03/27 04:24:29;;;;;;;28.05;15.93;;;2.60;53.60;;;;;;5074334;28;20216;-62
2022/03/27 04:26:56;;;;;;;28.65;18.27;;;2.60;52.90;;;;;;5073053;28;20198;-63
2022/03/27 04:29:25;;;;;;;30.95;16.85;;;2.60;53.50;;;;;;5060143;28;20186;-62
2022/03/27 04:31:53;;;;;;;26.27;16.35;;;2.60;53.70;;;;;;5073812;28;20194;-62
2022/03/27 04:34:20;;;;;;;28.50;16.85;;;2.50;54.40;;;;;;5073315;28;20232;-62
2022/03/27 04:36:48;;;;;;;30.42;16.60;;;2.50;54.40;;;;;;5059941;28;20665;-62
2022/03/27 04:39:15;;;;;;;30.50;18.00;;;2.60;54.30;;;;;;5053987;28;20198;-62
2022/03/27 04:41:42;;;;;;;25.98;17.77;;;2.60;54.20;;;;;;5065185;28;20190;-62
2022/03/27 04:44:09;;;;;;;26.60;17.30;;;2.60;53.40;;;;;;5073719;28;20194;-62
2022/03/27 04:46:37;;;;;;;23.05;15.82;;;2.70;53.40;;;;;;5062255;28;20182;-63
2022/03/27 04:49:05;;;;;;;25.65;16.95;;;2.60;54.80;;;;;;5053456;28;20194;-62
2022/03/27 04:51:33;;;;;;;28.27;17.40;;;2.60;55.50;;;;;;5064211;28;20193;-62
2022/03/27 04:54:00;;;;;;;31.83;16.02;;;2.50;55.40;;;;;;5073789;28;20602;-62
2022/03/27 04:56:27;;;;;;;29.55;16.67;;;2.40;55.50;;;;;;5063876;28;20557;-62
2022/03/27 04:58:54;;;;;;;25.40;16.15;;;2.40;55.30;;;;;;5053427;28;20193;-62
2022/03/27 05:01:21;;;;;;;27.35;18.23;;;2.30;55.00;;;;;;5061091;28;20198;-63
2022/03/27 05:03:48;;;;;;;31.42;18.50;;;2.40;55.10;;;;;;5073140;28;20251;-62
2022/03/27 05:06:16;;;;;;;27.30;17.50;;;2.40;55.30;;;;;;5066390;28;20608;-62
2022/03/27 05:08:45;;;;;;;31.30;19.55;;;2.40;56.30;;;;;;5057003;28;20268;-62
2022/03/27 05:11:12;;;;;;;23.70;15.48;;;2.40;55.80;;;;;;5073147;28;20240;-62
2022/03/27 05:13:39;;;;;;;28.05;16.48;;;2.50;55.50;;;;;;5063298;28;20186;-62
2022/03/27 05:16:07;;;;;;;28.52;16.85;;;2.50;56.10;;;;;;5052951;28;20269;-65
2022/03/27 05:18:34;;;;;;;27.40;15.10;;;2.50;56.20;;;;;;5060491;28;20190;-62
2022/03/27 05:21:01;;;;;;;27.95;16.45;;;2.40;56.30;;;;;;5072796;28;20204;-62
2022/03/27 05:23:30;;;;;;;28.45;16.00;;;2.40;57.20;;;;;;5066177;28;20300;-62
2022/03/27 05:25:57;;;;;;;29.83;17.30;;;2.50;56.00;;;;;;5063658;28;20197;-63
2022/03/27 05:28:24;;;;;;;27.83;17.27;;;2.50;56.20;;;;;;5062871;28;20182;-62
2022/03/27 05:30:51;;;;;;;27.00;16.83;;;2.50;56.00;;;;;;5053072;28;20236;-62
2022/03/27 05:33:18;;;;;;;29.85;18.15;;;2.40;56.60;;;;;;5060887;28;20217;-62
2022/03/27 05:35:50;;;;;;;35.28;19.70;;;2.50;57.10;;;;;;5072627;28;20196;-64
2022/03/27 05:38:17;;;;;;;35.55;18.17;;;2.50;56.80;;;;;;5058185;28;20186;-63
2022/03/27 05:40:47;;;;;;;31.75;18.90;;;2.50;56.70;;;;;;5053696;28;20248;-62
2022/03/27 05:43:14;;;;;;;31.02;16.85;;;2.60;57.00;;;;;;5072588;28;20217;-62
2022/03/27 05:45:41;;;;;;;25.83;16.30;;;2.70;57.10;;;;;;5071875;28;20201;-63
2022/03/27 05:48:08;;;;;;;29.08;16.70;;;2.70;56.90;;;;;;5052112;28;20645;-62
2022/03/27 05:50:35;;;;;;;25.95;17.40;;;2.70;57.10;;;;;;5052808;28;20259;-62
2022/03/27 05:53:03;;;;;;;35.67;16.23;;;2.70;57.70;;;;;;5070599;28;20231;-62
2022/03/27 05:55:30;;;;;;;23.10;16.00;;;2.80;58.10;;;;;;5072644;28;20194;-62
2022/03/27 05:58:00;;;;;;;30.35;16.50;;;2.90;58.30;;;;;;5054204;28;20197;-62
2022/03/27 06:00:27;;;;;;;24.55;17.02;;;3.10;58.60;;;;;;5052477;28;20213;-62
2022/03/27 06:02:54;;;;;;;28.02;17.83;;;3.20;58.60;;;;;;5068036;28;20286;-62
2022/03/27 06:05:23;;;;;;;26.55;17.23;;;3.30;59.10;;;;;;5052389;28;20285;-62
2022/03/27 06:07:51;;;;;;;37.13;17.35;;;3.40;58.60;;;;;;5067779;28;20239;-62
2022/03/27 06:10:21;;;;;;;27.98;16.75;;;3.50;58.00;;;;;;5072390;28;20668;-62
2022/03/27 06:12:48;;;;;;;27.13;19.05;;;3.60;58.10;;;;;;5057011;28;20230;-62
2022/03/27 06:15:17;;;;;;;28.15;18.65;;;3.60;58.30;;;;;;5052371;28;20608;-62
2022/03/27 06:17:46;;;;;;;27.48;18.33;;;3.60;58.60;;;;;;5072158;28;20223;-62
2022/03/27 06:20:15;;;;;;;29.15;18.40;;;3.80;58.60;;;;;;5049100;28;20555;-62
2022/03/27 06:22:44;;;;;;;30.20;19.05;;;3.90;58.70;;;;;;5050476;28;20303;-62
2022/03/27 06:25:12;;;;;;;37.67;21.15;;;4.10;58.50;;;;;;5051018;28;20186;-62
2022/03/27 06:27:39;;;;;;;28.98;19.80;;;4.30;58.50;;;;;;5050238;28;20205;-63
2022/03/27 06:30:08;;;;;;;33.20;20.75;;;4.50;58.10;;;;;;5050673;28;20252;-62
2022/03/27 06:32:37;;;;;;;29.67;19.42;;;4.70;57.70;;;;;;5046970;28;20595;-62
2022/03/27 06:35:06;;;;;;;31.40;18.80;;;4.90;58.10;;;;;;5049805;28;20186;-64
2022/03/27 06:37:34;;;;;;;33.67;19.45;;;5.00;57.80;;;;;;5050392;28;20205;-64
2022/03/27 06:40:02;;;;;;;30.98;19.88;;;5.20;57.50;;;;;;5053870;28;20248;-62
2022/03/27 06:42:29;;;;;;;27.77;18.60;;;5.40;57.70;;;;;;5050373;28;20619;-62
2022/03/27 06:44:56;;;;;;;28.05;17.90;;;5.60;56.30;;;;;;5049930;28;20187;-63
2022/03/27 06:47:25;;;;;;;27.70;19.48;;;5.80;56.10;;;;;;5050115;28;20293;-62
2022/03/27 06:49:54;;;;;;;24.90;16.17;;;6.00;55.00;;;;;;5050187;28;20190;-63
2022/03/27 06:52:22;;;;;;;30.80;17.10;;;6.10;54.80;;;;;;5051000;28;20216;-63
2022/03/27 06:54:50;;;;;;;24.52;16.88;;;6.40;54.50;;;;;;5050241;28;20186;-63
2022/03/27 06:57:17;;;;;;;26.35;16.70;;;6.50;54.90;;;;;;5050374;28;20229;-63
2022/03/27 07:05:14;;;;;;;29.52;19.88;;;7.60;54.40;;;;;;5054006;28;20196;-62
2022/03/27 07:07:42;;;;;;;28.23;16.77;;;8.20;53.30;;;;;;5053991;28;20989;-63
2022/03/27 07:10:10;;;;;;;25.23;16.92;;;8.70;52.60;;;;;;5054175;28;20186;-64
2022/03/27 07:12:37;;;;;;;24.98;16.80;;;9.20;52.40;;;;;;5053942;28;20193;-63
2022/03/27 07:15:05;;;;;;;26.27;17.63;;;10.00;51.10;;;;;;5053591;28;20244;-62
2022/03/27 07:17:32;;;;;;;26.02;16.48;;;11.00;49.70;;;;;;5053771;28;20182;-63
2022/03/27 07:19:59;;;;;;;26.48;16.17;;;12.00;49.70;;;;;;5053328;28;20195;-64
2022/03/27 07:22:28;;;;;;;26.15;18.35;;;13.30;46.80;;;;;;5051472;28;20200;-63
2022/03/27 07:24:55;;;;;;;26.92;16.33;;;14.70;42.50;;;;;;5053500;28;20540;-63
2022/03/27 07:27:22;;;;;;;24.13;17.23;;;16.60;39.70;;;;;;5053649;28;20550;-63
2022/03/27 07:29:49;;;;;;;26.48;18.10;;;18.50;35.20;;;;;;5053139;28;20545;-64
2022/03/27 07:32:16;;;;;;;22.85;17.63;;;20.20;31.50;;;;;;5053271;28;20212;-63
2022/03/27 07:34:43;;;;;;;23.80;19.20;;;21.60;29.30;;;;;;5053435;28;20229;-63
2022/03/27 07:37:10;;;;;;;20.67;18.23;;;23.10;27.10;;;;;;5053446;28;20444;-63
2022/03/27 07:39:39;;;;;;;20.60;17.50;;;24.50;26.70;;;;;;5052602;28;20438;-65
2022/03/27 07:42:06;;;;;;;25.33;19.00;;;25.90;25.00;;;;;;5053102;28;20437;-64
2022/03/27 07:44:33;;;;;;;20.47;17.37;;;27.20;21.70;;;;;;5052988;28;20480;-64
2022/03/27 07:47:01;;;;;;;21.23;18.00;;;28.40;21.80;;;;;;5053154;28;20832;-64
2022/03/27 07:49:28;;;;;;;23.50;17.80;;;29.50;21.00;;;;;;5052487;28;20516;-64
2022/03/27 07:51:55;;;;;;;20.90;17.60;;;30.70;20.10;;;;;;5052657;28;20445;-64
2022/03/27 07:54:22;;;;;;;22.73;18.67;;;31.80;18.90;;;;;;5052631;28;20437;-64
2022/03/27 07:56:51;;;;;;;20.73;18.17;;;32.90;17.30;;;;;;5052869;28;20439;-65
2022/03/27 07:59:18;;;;;;;18.70;16.80;;;33.60;15.70;;;;;;5056367;28;20445;-64
2022/03/27 08:01:45;;;;;;;19.63;17.57;;;34.50;15.80;;;;;;5052557;28;20448;-62
2022/03/27 08:04:12;;;;;;;19.30;17.40;;;35.30;14.80;;;;;;5052607;28;20515;-62
2022/03/27 08:06:39;;;;;;;21.87;17.93;;;36.00;13.00;;;;;;5052678;28;20445;-63
2022/03/27 08:09:06;;;;;;;22.10;18.13;;;36.50;12.90;;;;;;5048424;28;20459;-62
2022/03/27 08:11:35;;;;;;;19.63;17.73;;;37.00;11.30;;;;;;5052975;28;20455;-62
2022/03/27 08:14:04;;;;;;;22.90;17.80;;;37.50;11.50;;;;;;5053157;28;20441;-62
2022/03/27 08:16:31;;;;;;;21.73;19.53;;;38.00;11.10;;;;;;5059440;28;20445;-63
2022/03/27 08:18:58;;;;;;;18.20;16.30;;;38.60;11.00;;;;;;5052973;28;20465;-62
2022/03/27 08:21:25;;;;;;;16.17;14.67;;;39.20;10.70;;;;;;5054038;28;20537;-69
2022/03/27 08:23:52;;;;;;;18.80;17.10;;;39.50;9.90;;;;;;5058843;28;20789;-63
2022/03/27 08:29:05;;;;;;;20.50;18.60;;;40.30;8.90;;;;;;5056276;28;20798;-62
2022/03/27 08:31:32;;;;;;;18.53;16.83;;;40.70;8.80;;;;;;5054721;28;20445;-63
2022/03/27 08:33:59;;;;;;;18.87;17.07;;;41.30;8.30;;;;;;5054483;28;20575;-63
2022/03/27 08:36:29;;;;;;;18.77;17.00;;;41.60;8.60;;;;;;5054870;28;20445;-65
2022/03/27 08:38:56;;;;;;;18.17;16.50;;;42.20;8.20;;;;;;5060136;28;20803;-66
2022/03/27 08:41:24;;;;;;;20.10;16.23;;;42.80;8.00;;;;;;5051063;28;20448;-63
2022/03/27 08:43:58;;;;;;;20.87;16.27;;;43.30;7.20;;;;;;5051120;28;21431;-62
2022/03/27 08:46:29;;;;;;;18.10;16.50;;;43.80;7.60;;;;;;5055680;28;20489;-64
2022/03/27 08:49:01;;;;;;;17.57;15.97;;;44.30;7.30;;;;;;5051862;28;20941;-63
2022/03/27 08:51:33;;;;;;;17.23;15.73;;;44.70;6.90;;;;;;5056452;28;20437;-63
2022/03/27 08:54:05;;;;;;;17.80;15.90;;;45.00;6.20;;;;;;5053649;28;20466;-64
2022/03/27 08:56:34;;;;;;;17.77;15.87;;;45.00;6.60;;;;;;5053040;28;20433;-63
2022/03/27 08:59:05;;;;;;;16.77;15.27;;;45.40;6.20;;;;;;5052185;28;20974;-62
2022/03/27 09:01:34;;;;;;;17.80;16.20;;;45.70;6.10;;;;;;5052087;28;20428;-63
2022/03/27 09:04:02;;;;;;;17.20;14.87;;;46.10;6.00;;;;;;5052202;28;20486;-64
2022/03/27 09:06:35;;;;;;;19.70;17.80;;;46.50;5.90;;;;;;5051513;28;20440;-63
2022/03/27 09:09:02;;;;;;;16.37;14.80;;;47.00;5.50;;;;;;5048023;28;20520;-63
2022/03/27 09:11:32;;;;;;;18.47;16.57;;;47.40;5.80;;;;;;5052512;28;20453;-62
2022/03/27 09:14:00;;;;;;;17.43;15.63;;;47.60;5.00;;;;;;5052812;28;20583;-63
2022/03/27 09:16:27;;;;;;;17.50;15.80;;;47.90;5.30;;;;;;5050841;28;20441;-63
2022/03/27 09:18:58;;;;;;;17.33;15.63;;;48.30;5.10;;;;;;5052806;28;20535;-63
2022/03/27 09:21:27;;;;;;;18.83;15.83;;;48.70;4.90;;;;;;5051351;28;20519;-63
2022/03/27 09:23:55;;;;;;;18.10;16.53;;;49.10;4.70;;;;;;5051027;28;20844;-63
2022/03/27 09:26:23;;;;;;;16.93;15.23;;;49.50;4.20;;;;;;5051022;28;20441;-63
2022/03/27 09:28:52;;;;;;;18.70;15.87;;;49.80;4.60;;;;;;5053216;28;20499;-63
2022/03/27 09:31:25;;;;;;;18.27;16.40;;;50.20;4.10;;;;;;5051255;28;20437;-64
2022/03/27 09:33:55;;;;;;;17.07;15.50;;;50.30;4.30;;;;;;5047414;28;20492;-63
2022/03/27 09:36:24;;;;;;;19.17;17.37;;;50.80;4.20;;;;;;5050928;28;20483;-64
2022/03/27 09:39:00;;;;;;;17.10;15.30;;;51.20;4.00;;;;;;5050841;28;20473;-65
2022/03/27 09:41:33;;;;;;;17.40;16.00;;;51.60;3.90;;;;;;5048223;28;22082;-64
2022/03/27 09:44:05;;;;;;;17.03;15.60;;;51.80;3.70;;;;;;5051755;28;21004;-65
2022/03/27 09:46:57;;;;;;;16.47;15.03;;;52.00;3.50;;;;;;5053732;28;20489;-63
2022/03/27 09:49:39;;;;;;;17.40;14.97;;;52.30;3.50;;;;;;5036364;28;20441;-66
2022/03/27 09:52:09;;;;;;;16.00;14.50;;;52.50;3.40;;;;;;5049882;28;20935;-64
2022/03/27 09:54:50;;;;;;;15.33;14.07;;;52.70;3.10;;;;;;5050693;28;20579;-64
2022/03/27 09:57:19;;;;;;;16.50;15.20;;;52.60;3.20;;;;;;5050406;28;20465;-65
2022/03/27 09:59:47;;;;;;;16.20;14.80;;;52.70;3.40;;;;;;5051088;28;20417;-63
2022/03/27 10:02:19;;;;;;;16.70;15.13;;;52.60;3.20;;;;;;5050995;28;20436;-63
2022/03/27 10:05:04;;;;;;;16.73;15.03;;;52.80;3.50;;;;;;5050973;28;20432;-65
2022/03/27 10:07:36;;;;;;;15.53;14.23;;;52.90;3.40;;;;;;5049432;28;20436;-63
2022/03/27 10:10:04;;;;;;;14.33;13.03;;;53.20;3.50;;;;;;5054220;28;20531;-63
2022/03/27 10:12:34;;;;;;;16.40;15.00;;;53.40;3.20;;;;;;5053201;28;20471;-64
2022/03/27 10:15:04;;;;;;;15.53;14.13;;;53.80;3.00;;;;;;5052287;28;20473;-64
2022/03/27 10:17:34;;;;;;;14.63;13.23;;;53.90;2.90;;;;;;5048629;28;20495;-63
2022/03/27 10:20:08;;;;;;;14.20;12.80;;;54.20;3.10;;;;;;5052325;28;20488;-64
2022/03/27 10:22:39;;;;;;;14.43;13.23;;;54.30;3.10;;;;;;5050691;28;20811;-63
2022/03/27 10:25:08;;;;;;;15.70;14.13;;;54.30;2.70;;;;;;5050717;28;20983;-64
2022/03/27 10:27:36;;;;;;;15.07;13.77;;;54.20;2.70;;;;;;5050340;28;20445;-63
2022/03/27 10:30:05;;;;;;;14.43;13.13;;;54.20;2.90;;;;;;5043465;28;20478;-63
2022/03/27 10:32:33;;;;;;;15.60;14.10;;;54.30;2.80;;;;;;5042741;28;20437;-65
2022/03/27 10:35:18;;;;;;;15.10;13.80;;;54.50;2.50;;;;;;5052388;28;20832;-63
2022/03/27 10:37:57;;;;;;;13.63;12.53;;;54.70;2.10;;;;;;5047618;28;20444;-63
2022/03/27 10:40:43;;;;;;;16.10;14.40;;;54.20;2.90;;;;;;5051639;28;20524;-63
2022/03/27 10:43:24;;;;;;;16.03;14.60;;;54.20;2.70;;;;;;5050390;28;20792;-64
2022/03/27 10:46:13;;;;;;;14.57;13.17;;;54.60;2.40;;;;;;5049665;28;20974;-64
2022/03/27 10:48:42;;;;;;;16.07;14.73;;;54.80;2.40;;;;;;5052837;28;20507;-63
2022/03/27 10:51:11;;;;;;;15.40;13.90;;;54.80;2.10;;;;;;5056416;28;20511;-63
2022/03/27 10:53:38;;;;;;;15.17;13.70;;;54.90;2.20;;;;;;5053349;28;20432;-63
2022/03/27 10:56:05;;;;;;;14.67;13.37;;;54.90;1.90;;;;;;5053040;28;20425;-64
2022/03/27 10:58:38;;;;;;;13.40;12.10;;;54.60;2.00;;;;;;5053441;28;20447;-64
2022/03/27 11:01:08;;;;;;;13.73;12.33;;;54.70;2.20;;;;;;5053246;28;20997;-66
2022/03/27 11:04:04;;;;;;;14.80;13.43;;;54.90;2.10;;;;;;5052640;28;20440;-64
2022/03/27 11:06:34;;;;;;;13.37;12.27;;;55.00;2.00;;;;;;5053326;28;20529;-65
2022/03/27 11:09:03;;;;;;;14.57;13.23;;;54.90;1.60;;;;;;5053563;28;21465;-64
2022/03/27 11:12:08;;;;;;;13.00;11.90;;;54.10;1.70;;;;;;5053385;28;20452;-63
2022/03/27 11:15:05;;;;;;;13.20;12.10;;;53.90;1.60;;;;;;5052886;28;20428;-64
2022/03/27 11:17:37;;;;;;;14.03;12.73;;;53.80;1.80;;;;;;5053538;28;20428;-64
2022/03/27 11:20:06;;;;;;;14.17;11.30;;;53.80;1.80;;;;;;5052167;28;20441;-63
2022/03/27 11:22:47;;;;;;;11.67;10.67;;;53.70;2.00;;;;;;5052361;28;20490;-65
2022/03/27 11:25:47;;;;;;;14.07;12.70;;;54.00;2.00;;;;;;5053298;28;20476;-63
2022/03/27 11:28:16;;;;;;;13.13;12.03;;;54.10;1.70;;;;;;5053592;28;20441;-64
2022/03/27 11:31:18;;;;;;;13.60;12.47;;;54.20;1.20;;;;;;5053465;28;20811;-63
2022/03/27 11:34:07;;;;;;;16.73;11.90;;;54.20;1.10;;;;;;5050392;28;20460;-63
2022/03/27 11:36:35;;;;;;;12.73;11.73;;;53.90;1.20;;;;;;5049696;28;20440;-63
2022/03/27 11:39:07;;;;;;;13.90;12.70;;;53.80;1.60;;;;;;5053902;28;20464;-63
2022/03/27 11:41:38;;;;;;;13.53;12.43;;;54.10;1.50;;;;;;5053374;28;20447;-64
2022/03/27 11:47:11;;;;;;;13.47;12.40;;;54.10;1.80;;;;;;5051459;28;20441;-65
2022/03/27 11:49:40;;;;;;;13.67;12.50;;;54.10;1.00;;;;;;5051175;28;20539;-65
2022/03/27 11:52:08;;;;;;;13.93;12.73;;;53.90;1.40;;;;;;5053129;28;20524;-64
2022/03/27 11:54:37;;;;;;;12.27;11.17;;;53.80;1.50;;;;;;5052972;28;20923;-69
2022/03/27 11:57:05;;;;;;;13.00;11.73;;;53.70;1.60;;;;;;5053319;28;20436;-63
2022/03/27 11:59:43;;;;;;;13.33;12.23;;;53.80;1.30;;;;;;5048583;28;20932;-69
2022/03/27 12:02:10;;;;;;;16.43;14.93;;;54.00;1.20;;;;;;5052908;28;20853;-63
2022/03/27 12:04:50;;;;;;;12.37;11.27;;;53.80;1.40;;;;;;5051725;28;21003;-64
2022/03/27 12:07:17;;;;;;;12.67;11.67;;;53.90;1.70;;;;;;5053345;28;20468;-63
2022/03/27 12:09:55;;;;;;;12.87;11.67;;;54.00;1.00;;;;;;5051777;28;20437;-68
2022/03/27 12:12:22;;;;;;;14.67;13.17;;;54.00;1.30;;;;;;5049664;28;20539;-63
2022/03/27 12:14:53;;;;;;;13.00;11.83;;;53.80;1.00;;;;;;5051938;28;20495;-63
2022/03/27 12:17:20;;;;;;;13.67;12.57;;;53.30;1.20;;;;;;5052574;28;20465;-63
2022/03/27 12:20:01;;;;;;;12.83;11.40;;;52.90;1.30;;;;;;5052127;28;20931;-63
2022/03/27 12:22:38;;;;;;;20.13;12.50;;;52.90;1.40;;;;;;5052366;28;20441;-65
2022/03/27 12:25:10;;;;;;;13.20;11.80;;;52.50;1.30;;;;;;5052498;28;20491;-63
2022/03/27 12:30:32;;;;;;;14.57;13.17;;;51.70;1.60;;;;;;5052373;28;20444;-64
2022/03/27 12:33:01;;;;;;;13.23;11.83;;;51.10;1.40;;;;;;5052244;28;20861;-63
2022/03/27 12:35:29;;;;;;;14.70;13.50;;;50.70;1.80;;;;;;5052560;28;20925;-63
2022/03/27 12:37:56;;;;;;;13.40;12.10;;;50.30;1.90;;;;;;5052515;28;20469;-63
2022/03/27 12:40:25;;;;;;;13.40;12.20;;;50.20;2.20;;;;;;5051883;28;20849;-63
2022/03/27 12:42:53;;;;;;;17.73;12.00;;;50.30;2.40;;;;;;5052479;28;20443;-63
2022/03/27 12:45:29;;;;;;;11.93;10.93;;;50.30;2.00;;;;;;5052426;28;20488;-66
2022/03/27 12:47:58;;;;;;;13.80;12.50;;;50.20;2.00;;;;;;5047951;28;20441;-63
2022/03/27 12:50:36;;;;;;;12.00;10.90;;;49.90;2.00;;;;;;5052330;28;20445;-63
2022/03/27 12:53:05;;;;;;;12.97;11.77;;;49.80;2.30;;;;;;5048935;28;20439;-62
2022/03/27 12:55:45;;;;;;;12.80;11.53;;;49.70;2.10;;;;;;5052847;28;20441;-63
2022/03/27 12:58:13;;;;;;;12.67;11.17;;;49.40;2.10;;;;;;5054318;28;20448;-63
2022/03/27 13:00:41;;;;;;;13.50;12.20;;;48.60;1.80;;;;;;5053032;28;20440;-63